Time;durP1;ratioP1;P1;durP2;ratioP2;P2;SDS_P1;SDS_P2;PMS_P1;PMS_P2;Temp;Humidity;BMP_temperature;BMP_pressure;BME280_temperature;BME280_humidity;BME280_pressure;Samples;Min_cycle;Max_cycle;Signal;HPM_P1;HPM_P2
2022/10/28 00:01:26;;;;;;;13.77;4.10;;;;;;;15.97;81.00;99783.47;5059662;28;20048;-45
2022/10/28 00:03:56;;;;;;;15.07;4.93;;;;;;;15.99;81.37;99789.47;5059823;28;20072;-44
2022/10/28 00:06:27;;;;;;;13.75;4.57;;;;;;;15.99;80.88;99797.31;5063501;28;22033;-45
2022/10/28 00:08:54;;;;;;;12.20;4.60;;;;;;;15.97;81.08;99809.56;5060445;28;20128;-47
2022/10/28 00:11:23;;;;;;;12.98;4.28;;;;;;;16.01;80.59;99803.38;5058333;28;20072;-46
2022/10/28 00:13:53;;;;;;;12.77;4.45;;;;;;;16.00;80.49;99796.41;5059616;28;20675;-48
2022/10/28 00:16:22;;;;;;;14.00;4.70;;;;;;;15.98;80.63;99806.06;5059291;28;20055;-43
2022/10/28 00:18:52;;;;;;;18.05;4.88;;;;;;;15.98;81.13;99809.53;5060269;28;20075;-44
2022/10/28 00:21:24;;;;;;;10.48;4.72;;;;;;;15.99;81.29;99811.25;5058888;28;20049;-43
2022/10/28 00:23:52;;;;;;;15.65;4.45;;;;;;;15.96;81.17;99805.22;5059011;28;20423;-47
2022/10/28 00:26:24;;;;;;;11.95;4.75;;;;;;;15.97;81.48;99810.41;5057089;28;20040;-45
2022/10/28 00:28:54;;;;;;;13.63;4.43;;;;;;;15.99;81.21;99799.94;5042556;28;20075;-45
2022/10/28 00:31:25;;;;;;;18.48;4.72;;;;;;;15.97;80.93;99802.56;5057765;28;20059;-44
2022/10/28 00:33:53;;;;;;;13.90;4.57;;;;;;;15.98;80.84;99808.66;5058465;28;20049;-48
2022/10/28 00:36:26;;;;;;;16.30;4.57;;;;;;;15.98;81.71;99806.06;5062121;28;20500;-43
2022/10/28 00:38:55;;;;;;;9.23;4.03;;;;;;;15.92;81.58;99804.44;5057867;28;20061;-45
2022/10/28 00:41:26;;;;;;;17.40;3.88;;;;;;;15.89;81.74;99794.94;5061105;28;20048;-46
2022/10/28 00:43:59;;;;;;;10.98;4.07;;;;;;;15.91;81.98;99795.75;5060366;28;20127;-45
2022/10/28 00:52:03;;;;;;;11.95;4.40;;;;;;;15.91;81.40;99776.63;5039910;28;20416;-46
2022/10/28 00:54:30;;;;;;;16.52;4.50;;;;;;;15.91;81.83;99766.19;5019536;28;20053;-46
2022/10/28 00:57:02;;;;;;;10.77;3.75;;;;;;;15.92;81.44;99763.53;5015861;28;21294;-44
2022/10/28 00:59:32;;;;;;;14.98;3.33;;;;;;;15.90;81.72;99767.94;5013672;28;20049;-45
2022/10/28 01:02:00;;;;;;;13.85;4.25;;;;;;;15.91;81.40;99767.00;5010001;28;20776;-46
2022/10/28 01:04:27;;;;;;;12.10;4.00;;;;;;;15.93;82.20;99764.38;5011273;28;20049;-42
2022/10/28 01:06:54;;;;;;;15.85;3.95;;;;;;;15.91;82.17;99760.97;5015178;28;20049;-45
2022/10/28 01:09:21;;;;;;;11.70;4.15;;;;;;;15.90;81.34;99759.22;5015588;28;20048;-46
2022/10/28 01:26:16;;;;;;;16.80;6.07;;;;;;;16.05;80.82;99756.19;5086551;27;20395;-46
2022/10/28 01:31:29;;;;;;;14.77;3.92;;;;;;;15.86;81.30;99748.03;5097480;27;20404;-46
2022/10/28 01:34:15;;;;;;;;;;;;;;;15.70;82.58;99758.06;5074174;28;20045;-45
2022/10/28 01:36:56;;;;;;;11.27;4.65;;;;;;;15.76;81.64;99754.41;5085452;28;20355;-49
2022/10/28 01:42:21;;;;;;;16.30;4.65;;;;;;;15.78;81.74;99750.00;5060737;27;20427;-47
2022/10/28 01:47:49;;;;;;;14.02;6.30;;;;;;;15.74;81.49;99748.41;5076592;27;20414;-49
2022/10/28 01:50:24;;;;;;;13.35;6.22;;;;;;;15.76;81.68;99746.56;5074644;28;20744;-50
2022/10/28 01:52:53;;;;;;;11.93;6.40;;;;;;;15.72;81.52;99739.72;5093145;28;20101;-46
2022/10/28 01:55:26;;;;;;;11.60;5.97;;;;;;;15.72;81.52;99737.13;5096601;28;20051;-45
2022/10/28 01:57:56;;;;;;;17.13;7.25;;;;;;;15.71;81.63;99735.41;5094364;28;20481;-46
2022/10/28 02:00:23;;;;;;;11.55;6.20;;;;;;;15.67;82.23;99732.91;5097019;28;20134;-50
2022/10/28 02:02:49;;;;;;;13.68;6.70;;;;;;;15.66;81.85;99715.53;5097367;28;20078;-44
2022/10/28 02:05:40;;;;;;;15.95;5.82;;;;;;;15.57;82.30;99718.38;5096187;28;20055;-45
2022/10/28 02:16:58;;;;;;;14.60;4.40;;;;;;;15.47;82.86;99701.31;5045009;28;20394;-48
2022/10/28 02:25:06;;;;;;;13.00;6.45;;;;;;;15.51;82.77;99689.88;5122714;27;20934;-46
2022/10/28 02:27:58;;;;;;;14.48;7.05;;;;;;;15.46;82.84;99696.97;5114944;27;20054;-49
2022/10/28 02:30:36;;;;;;;18.33;5.78;;;;;;;15.42;82.87;99676.19;5103742;27;20120;-43
2022/10/28 02:33:09;;;;;;;14.07;5.93;;;;;;;15.44;83.09;99662.25;5099186;28;20044;-43
2022/10/28 02:35:56;;;;;;;14.35;6.82;;;;;;;15.37;83.06;99666.78;5096683;28;20143;-45
2022/10/28 02:38:34;;;;;;;14.50;6.70;;;;;;;15.39;83.07;99671.06;5086417;28;20131;-42
2022/10/28 02:41:09;;;;;;;16.33;6.10;;;;;;;15.40;83.08;99670.16;5095465;27;20805;-47
2022/10/28 02:43:37;;;;;;;14.55;6.43;;;;;;;15.44;82.98;99680.50;5099988;28;20043;-48
2022/10/28 02:46:06;;;;;;;11.73;5.80;;;;;;;15.39;83.26;99672.81;5090980;28;20071;-46
2022/10/28 02:48:39;;;;;;;16.38;6.53;;;;;;;15.45;83.21;99669.16;5074705;28;20054;-47
2022/10/28 02:51:10;;;;;;;13.60;6.43;;;;;;;15.42;83.12;99670.97;5072348;28;20075;-46
2022/10/28 02:54:04;;;;;;;13.15;7.13;;;;;;;15.46;82.55;99657.81;5075740;28;20128;-47
2022/10/28 02:56:36;;;;;;;15.43;6.35;;;;;;;15.45;83.12;99658.72;5072453;28;20044;-44
2022/10/28 02:59:02;;;;;;;18.77;6.88;;;;;;;15.45;83.30;99645.69;5073638;28;20131;-47
2022/10/28 03:01:29;;;;;;;13.75;7.75;;;;;;;15.44;83.76;99647.44;5076218;28;20058;-47
2022/10/28 03:03:55;;;;;;;16.10;6.47;;;;;;;15.46;82.99;99640.41;5075903;28;20750;-42
2022/10/28 03:06:22;;;;;;;15.05;6.45;;;;;;;15.46;83.14;99639.53;5078462;28;20118;-48
2022/10/28 03:08:53;;;;;;;19.55;8.18;;;;;;;15.45;82.61;99637.84;5074580;28;20040;-48
2022/10/28 03:11:21;;;;;;;16.05;6.40;;;;;;;15.37;82.91;99644.13;5077594;28;20131;-44
2022/10/28 03:13:47;;;;;;;20.48;7.15;;;;;;;15.39;83.82;99644.09;5072410;28;20468;-46
2022/10/28 03:16:14;;;;;;;21.67;7.07;;;;;;;15.39;83.64;99649.31;5074978;28;20045;-43
2022/10/28 03:18:41;;;;;;;13.38;6.53;;;;;;;15.37;83.60;99636.31;5076576;28;20135;-45
2022/10/28 03:21:08;;;;;;;18.30;6.72;;;;;;;15.38;83.50;99632.81;5074277;28;20072;-43
2022/10/28 03:23:35;;;;;;;16.95;7.30;;;;;;;15.39;83.04;99612.78;5074790;28;20071;-46
2022/10/28 03:26:01;;;;;;;19.50;6.70;;;;;;;15.33;83.49;99598.16;5078622;28;20511;-46
2022/10/28 03:28:28;;;;;;;17.33;7.22;;;;;;;15.36;83.37;99587.66;5074236;28;20558;-46
2022/10/28 03:30:54;;;;;;;21.00;8.18;;;;;;;15.34;82.90;99593.81;5077606;28;20050;-42
2022/10/28 03:33:21;;;;;;;17.73;6.43;;;;;;;15.36;83.71;99597.22;5076659;28;20070;-43
2022/10/28 03:35:47;;;;;;;16.10;7.65;;;;;;;15.38;83.35;99596.28;5061717;28;20053;-45
2022/10/28 03:38:14;;;;;;;14.57;6.72;;;;;;;15.37;83.03;99584.13;5057476;28;20314;-46
2022/10/28 03:40:41;;;;;;;16.33;7.20;;;;;;;15.38;82.85;99574.56;5064454;28;20048;-44
2022/10/28 03:43:07;;;;;;;22.20;7.10;;;;;;;15.38;83.26;99572.81;5060923;28;20140;-47
2022/10/28 03:45:34;;;;;;;14.73;6.95;;;;;;;15.36;82.88;99579.81;5065277;28;20071;-43
2022/10/28 03:48:00;;;;;;;13.63;5.15;;;;;;;15.38;82.64;99577.16;5064835;28;20351;-47
2022/10/28 03:50:27;;;;;;;13.15;6.18;;;;;;;15.36;82.31;99566.78;5065539;28;20127;-46
2022/10/28 03:52:53;;;;;;;14.57;6.80;;;;;;;15.36;82.55;99561.56;5061431;28;20075;-45
2022/10/28 03:55:22;;;;;;;23.95;7.32;;;;;;;15.36;83.05;99564.16;5061841;28;20135;-43
2022/10/28 03:57:49;;;;;;;16.73;6.63;;;;;;;15.36;83.16;99561.56;5063695;28;20131;-47
2022/10/28 04:00:16;;;;;;;18.95;6.60;;;;;;;15.36;83.44;99556.34;5056361;28;20166;-48
2022/10/28 04:02:48;;;;;;;12.93;4.85;;;;;;;15.35;82.60;99551.16;5062251;28;20419;-42
2022/10/28 04:05:14;;;;;;;9.57;5.30;;;;;;;15.33;83.63;99540.75;5059726;28;20128;-45
2022/10/28 04:07:41;;;;;;;11.27;6.05;;;;;;;15.36;83.68;99539.81;5062078;28;20055;-44
2022/10/28 04:10:08;;;;;;;10.70;4.95;;;;;;;15.35;83.75;99531.16;5063373;28;20054;-45
2022/10/28 04:12:34;;;;;;;8.93;4.60;;;;;;;15.34;83.97;99526.84;5081044;28;20065;-46
2022/10/28 04:15:01;;;;;;;10.05;5.30;;;;;;;15.36;83.51;99525.03;5065471;28;20048;-48
2022/10/28 04:17:28;;;;;;;11.07;5.57;;;;;;;15.30;83.71;99522.59;5062438;28;20143;-46
2022/10/28 04:19:55;;;;;;;14.82;4.53;;;;;;;15.29;83.79;99524.38;5062945;28;20049;-49
2022/10/28 04:22:22;;;;;;;12.02;3.53;;;;;;;15.24;83.25;99514.97;5064021;28;20473;-45
2022/10/28 04:24:48;;;;;;;12.98;4.05;;;;;;;15.24;84.05;99514.97;5059205;28;20383;-44
2022/10/28 04:27:15;;;;;;;11.18;4.97;;;;;;;15.20;83.46;99498.53;5060440;28;20036;-45
2022/10/28 04:29:41;;;;;;;9.90;4.75;;;;;;;15.22;83.74;99498.50;5061052;28;20056;-43
2022/10/28 04:32:09;;;;;;;13.73;4.97;;;;;;;15.20;83.29;99497.72;5064255;28;20504;-49
2022/10/28 04:34:35;;;;;;;10.57;5.72;;;;;;;15.16;84.04;99510.84;5068479;28;20123;-48
2022/10/28 04:37:02;;;;;;;12.55;5.25;;;;;;;15.21;83.75;99505.50;5085202;28;20079;-44
2022/10/28 04:39:29;;;;;;;9.30;4.80;;;;;;;15.19;83.56;99501.22;5058543;28;20048;-46
2022/10/28 04:41:55;;;;;;;15.65;5.40;;;;;;;15.13;83.60;99492.66;5054522;28;20139;-48
2022/10/28 04:44:22;;;;;;;8.07;5.07;;;;;;;15.15;83.82;99506.53;5060875;28;20040;-46
2022/10/28 04:46:48;;;;;;;11.63;5.50;;;;;;;15.14;83.99;99493.53;5056633;28;20135;-44
2022/10/28 04:49:15;;;;;;;12.98;5.15;;;;;;;15.18;83.80;99478.63;5063315;28;20151;-44
2022/10/28 04:51:41;;;;;;;15.40;5.93;;;;;;;15.07;84.59;99482.44;5060470;28;20051;-45
2022/10/28 04:54:08;;;;;;;12.80;6.38;;;;;;;15.08;84.47;99476.31;5063744;28;20102;-46
2022/10/28 04:56:34;;;;;;;14.63;6.07;;;;;;;15.11;83.68;99463.19;5062626;28;20136;-45
2022/10/28 04:59:01;;;;;;;9.07;5.03;;;;;;;15.09;83.44;99479.75;5063316;28;20048;-46
2022/10/28 05:01:28;;;;;;;11.45;5.57;;;;;;;15.11;84.07;99478.84;5060176;28;20559;-45
2022/10/28 05:03:54;;;;;;;12.38;5.65;;;;;;;15.05;84.59;99494.66;5059465;28;20044;-45
2022/10/28 05:06:21;;;;;;;12.90;5.85;;;;;;;15.09;83.97;99491.06;5063728;28;20437;-47
2022/10/28 05:08:47;;;;;;;9.60;5.70;;;;;;;15.13;84.11;99494.44;5060104;28;20048;-44
2022/10/28 05:11:14;;;;;;;15.25;5.55;;;;;;;15.10;83.91;99492.75;5060906;28;20192;-46
2022/10/28 05:13:40;;;;;;;13.18;4.97;;;;;;;15.10;83.84;99482.31;5061651;28;20037;-46
2022/10/28 05:16:07;;;;;;;15.82;5.72;;;;;;;15.18;83.68;99483.84;5061808;28;20055;-44
2022/10/28 05:18:34;;;;;;;14.65;5.90;;;;;;;15.15;84.37;99490.88;5064074;28;20128;-45
2022/10/28 05:21:00;;;;;;;14.57;6.35;;;;;;;15.15;84.28;99501.31;5058791;28;20041;-46
2022/10/28 05:23:27;;;;;;;12.40;4.88;;;;;;;15.14;84.46;99489.16;5062512;28;20080;-49
2022/10/28 05:25:56;;;;;;;10.77;5.22;;;;;;;15.10;84.48;99471.88;5064754;28;20086;-45
2022/10/28 05:28:23;;;;;;;9.73;6.28;;;;;;;15.08;84.55;99468.50;5061551;28;20044;-45
2022/10/28 05:30:49;;;;;;;11.98;5.63;;;;;;;15.14;84.29;99475.28;5061433;28;20147;-48
2022/10/28 05:33:16;;;;;;;13.48;6.60;;;;;;;15.13;84.73;99479.63;5062723;28;20040;-49
2022/10/28 05:35:43;;;;;;;11.38;5.88;;;;;;;15.21;84.64;99488.97;5057455;28;20087;-44
2022/10/28 05:38:09;;;;;;;12.45;5.68;;;;;;;15.24;84.42;99484.53;5056761;28;20139;-46
2022/10/28 05:40:36;;;;;;;13.32;5.32;;;;;;;15.23;84.06;99477.59;5059129;28;20541;-50
2022/10/28 05:43:03;;;;;;;16.02;5.68;;;;;;;15.31;83.77;99482.56;5059951;28;20079;-47
2022/10/28 05:45:30;;;;;;;12.35;4.28;;;;;;;15.28;84.23;99480.06;5063123;28;20276;-47
2022/10/28 05:47:56;;;;;;;13.18;5.53;;;;;;;15.34;83.72;99487.69;5048165;28;20052;-46
2022/10/28 05:50:23;;;;;;;15.57;6.63;;;;;;;15.37;84.04;99490.19;5059382;28;20056;-50
2022/10/28 05:52:51;;;;;;;14.35;5.68;;;;;;;15.36;83.87;99472.84;5058423;28;20068;-46
2022/10/28 05:55:20;;;;;;;11.88;5.82;;;;;;;15.40;83.48;99469.22;5041100;28;20129;-44
2022/10/28 05:57:48;;;;;;;17.83;5.72;;;;;;;15.39;83.58;99461.44;5039723;28;20080;-47
2022/10/28 06:00:16;;;;;;;17.55;6.03;;;;;;;15.40;83.74;99473.59;5043636;28;20075;-51
2022/10/28 06:02:43;;;;;;;12.82;5.22;;;;;;;15.41;83.64;99481.34;5056292;28;20060;-47
2022/10/28 06:05:11;;;;;;;12.85;5.88;;;;;;;15.44;83.69;99474.34;5069485;28;20047;-44
2022/10/28 06:07:39;;;;;;;13.50;5.57;;;;;;;15.49;83.49;99475.03;5058937;28;20135;-46
2022/10/28 06:10:08;;;;;;;12.35;5.07;;;;;;;15.47;83.53;99484.69;5063261;28;20076;-44
2022/10/28 06:12:35;;;;;;;14.10;5.63;;;;;;;15.51;83.79;99491.53;5063599;28;20040;-45
2022/10/28 06:15:02;;;;;;;11.80;5.32;;;;;;;15.55;83.52;99493.13;5064383;28;20048;-44
2022/10/28 06:17:29;;;;;;;8.45;5.00;;;;;;;15.55;84.31;99507.03;5081137;28;20689;-49
2022/10/28 06:19:56;;;;;;;11.63;5.28;;;;;;;15.61;83.42;99502.50;5074701;28;20055;-44
2022/10/28 06:22:22;;;;;;;12.35;5.85;;;;;;;15.65;83.44;99514.56;5060809;28;20052;-44
2022/10/28 06:24:49;;;;;;;10.73;4.85;;;;;;;15.63;83.43;99521.56;5063024;28;20040;-53
2022/10/28 06:27:15;;;;;;;9.13;4.80;;;;;;;15.68;82.83;99530.97;5064462;28;20047;-46
2022/10/28 06:29:42;;;;;;;10.43;4.40;;;;;;;15.73;82.75;99516.91;5065537;28;20215;-45
2022/10/28 06:32:09;;;;;;;10.20;5.18;;;;;;;15.78;82.25;99507.19;5059359;28;20059;-42
2022/10/28 06:34:38;;;;;;;10.00;4.13;;;;;;;15.84;82.05;99504.34;5063287;28;20074;-45
2022/10/28 06:37:06;;;;;;;9.93;4.20;;;;;;;15.91;81.92;99474.53;5061515;28;20091;-46
2022/10/28 06:39:33;;;;;;;10.07;5.57;;;;;;;15.94;81.69;99477.03;5059322;28;20048;-46
2022/10/28 06:42:00;;;;;;;10.35;4.97;;;;;;;15.91;81.86;99477.13;5057729;28;20055;-46
2022/10/28 06:44:26;;;;;;;10.25;4.40;;;;;;;15.96;82.20;99455.25;5063501;28;20132;-49
2022/10/28 06:46:53;;;;;;;10.25;5.05;;;;;;;15.94;81.56;99458.75;5057300;28;20560;-47
2022/10/28 06:49:19;;;;;;;8.23;4.07;;;;;;;16.00;81.32;99456.84;5061108;28;20563;-46
2022/10/28 06:51:46;;;;;;;6.60;3.47;;;;;;;15.97;81.63;99457.81;5063640;28;20087;-49
2022/10/28 06:54:12;;;;;;;10.60;4.72;;;;;;;15.96;82.24;99455.25;5059801;28;20131;-44
2022/10/28 06:56:39;;;;;;;10.60;3.78;;;;;;;16.05;80.86;99449.72;5057955;28;20470;-44
2022/10/28 06:59:06;;;;;;;8.57;4.22;;;;;;;16.02;81.46;99473.34;5063458;28;20058;-45
2022/10/28 07:01:33;;;;;;;13.73;4.28;;;;;;;16.01;81.31;99469.88;5055436;28;20050;-49
2022/10/28 07:04:00;;;;;;;9.20;5.22;;;;;;;15.99;81.80;99476.91;5059748;28;20056;-47
2022/10/28 07:06:26;;;;;;;12.25;5.13;;;;;;;16.06;81.83;99480.16;5056948;28;20041;-46
2022/10/28 07:08:53;;;;;;;11.90;5.07;;;;;;;16.01;81.95;99474.25;5060587;28;20075;-46
2022/10/28 07:11:20;;;;;;;12.07;5.03;;;;;;;16.03;81.54;99464.59;5060932;28;20040;-47
2022/10/28 07:13:46;;;;;;;6.45;4.38;;;;;;;16.03;81.63;99461.97;5064201;28;20144;-49
2022/10/28 07:16:14;;;;;;;12.48;4.90;;;;;;;16.09;81.95;99455.69;5062532;28;20079;-47
2022/10/28 07:18:41;;;;;;;7.63;3.75;;;;;;;16.03;82.03;99452.41;5063332;28;20411;-45
2022/10/28 07:21:07;;;;;;;13.13;3.83;;;;;;;16.01;82.43;99459.41;5061956;28;20521;-46
2022/10/28 07:23:34;;;;;;;10.38;4.18;;;;;;;16.08;81.16;99462.69;5063139;28;20671;-45
2022/10/28 07:26:01;;;;;;;9.07;5.03;;;;;;;16.08;82.27;99454.84;5061557;28;20051;-46
2022/10/28 07:28:28;;;;;;;8.15;4.13;;;;;;;16.07;81.09;99455.75;5058423;28;20064;-43
2022/10/28 07:30:59;;;;;;;10.60;4.07;;;;;;;16.08;81.61;99480.97;5064239;28;20121;-45
2022/10/28 07:33:26;;;;;;;13.02;4.40;;;;;;;16.16;81.40;99475.47;5079861;28;20048;-47
2022/10/28 07:35:52;;;;;;;12.70;4.18;;;;;;;16.20;81.59;99495.34;5068892;28;20444;-48
2022/10/28 07:38:19;;;;;;;6.88;4.32;;;;;;;16.27;81.07;99506.44;5072537;28;20095;-48
2022/10/28 07:40:45;;;;;;;10.43;4.05;;;;;;;16.21;81.43;99507.50;5075844;28;20131;-45
2022/10/28 07:43:12;;;;;;;11.70;4.15;;;;;;;16.30;81.34;99514.16;5063134;28;20136;-47
2022/10/28 07:45:38;;;;;;;10.18;3.63;;;;;;;16.37;81.06;99512.19;5065405;28;20044;-46
2022/10/28 07:48:06;;;;;;;12.82;4.10;;;;;;;16.38;80.47;99514.75;5062665;28;20173;-46
2022/10/28 07:50:32;;;;;;;9.40;4.35;;;;;;;16.40;80.66;99518.19;5056882;28;20067;-45
2022/10/28 07:52:59;;;;;;;12.73;4.70;;;;;;;16.44;80.37;99525.00;5063334;28;20979;-47
2022/10/28 07:55:26;;;;;;;15.52;5.05;;;;;;;16.49;79.93;99521.38;5067405;28;20095;-48
2022/10/28 07:57:53;;;;;;;7.10;3.75;;;;;;;16.52;80.82;99526.50;5065675;28;20072;-44
2022/10/28 08:00:20;;;;;;;9.68;3.35;;;;;;;16.55;80.52;99529.00;5067114;28;20066;-46
2022/10/28 08:02:47;;;;;;;9.77;3.97;;;;;;;16.61;79.70;99531.38;5060757;28;20048;-47
2022/10/28 08:05:14;;;;;;;12.07;3.35;;;;;;;16.62;80.46;99542.69;5065780;28;20086;-44
2022/10/28 08:07:41;;;;;;;9.57;3.97;;;;;;;16.64;80.57;99535.63;5067619;28;20148;-43
2022/10/28 08:10:07;;;;;;;6.38;3.65;;;;;;;16.67;80.05;99552.09;5081363;28;20144;-45
2022/10/28 08:12:34;;;;;;;9.63;4.45;;;;;;;16.73;80.41;99552.75;5062432;28;20078;-47
2022/10/28 08:15:01;;;;;;;5.57;3.22;;;;;;;16.75;79.62;99569.25;5081686;28;20067;-46
2022/10/28 08:17:28;;;;;;;7.70;2.97;;;;;;;16.79;79.52;99581.31;5082512;28;20101;-48
2022/10/28 08:19:55;;;;;;;7.47;3.97;;;;;;;16.80;80.11;99588.25;5081246;28;20075;-48
2022/10/28 08:22:22;;;;;;;7.68;3.85;;;;;;;16.83;79.94;99588.13;5085013;28;20578;-47
2022/10/28 08:24:48;;;;;;;9.93;3.78;;;;;;;16.82;79.35;99608.19;5083147;28;20036;-44
2022/10/28 08:27:15;;;;;;;10.38;3.88;;;;;;;16.85;79.03;99612.44;5081834;28;20048;-46
2022/10/28 08:29:41;;;;;;;5.97;3.15;;;;;;;16.87;79.41;99615.88;5080263;28;20078;-47
2022/10/28 08:32:08;;;;;;;10.52;3.40;;;;;;;16.88;79.63;99617.59;5053730;28;20511;-49
2022/10/28 08:34:35;;;;;;;7.90;4.10;;;;;;;16.88;79.37;99633.28;5047355;28;20102;-47
2022/10/28 08:37:08;;;;;;;7.07;1.92;;;;;;;16.89;78.99;99639.38;5063973;28;20645;-47
2022/10/28 08:39:34;;;;;;;5.70;2.80;;;;;;;16.86;78.41;99644.69;5084504;28;20070;-46
2022/10/28 08:48:04;;;;;;;9.15;3.00;;;;;;;16.78;78.15;99663.25;5071750;27;20404;-46
2022/10/28 08:50:38;;;;;;;6.47;1.60;;;;;;;16.78;77.65;99663.25;5057332;28;20045;-44
2022/10/28 08:53:25;;;;;;;13.23;4.75;;;;;;;16.78;78.05;99689.41;5055529;28;20471;-46
2022/10/28 08:55:58;;;;;;;7.05;1.48;;;;;;;16.73;78.09;99679.13;5046936;28;20041;-44
2022/10/28 08:58:30;;;;;;;5.82;2.55;;;;;;;16.73;77.05;99670.41;5036745;28;20096;-50
2022/10/28 09:00:58;;;;;;;6.90;1.98;;;;;;;16.76;77.17;99686.00;5028667;28;20041;-47
2022/10/28 09:06:06;;;;;;;5.22;2.25;;;;;;;16.91;76.21;99711.63;5029552;27;20394;-47
2022/10/28 09:08:38;;;;;;;3.28;2.08;;;;;;;17.12;75.59;99711.81;5017682;28;20060;-45
2022/10/28 09:22:10;;;;;;;14.50;3.70;;;;;;;18.71;71.83;99729.38;5085245;27;20407;-46
2022/10/28 09:24:59;;;;;;;10.05;2.33;;;;;;;18.74;71.85;99734.50;5015691;28;20057;-45
2022/10/28 09:28:06;;;;;;;3.47;0.85;;;;;;;18.97;71.35;99740.56;5017172;28;20659;-47
2022/10/28 09:30:46;;;;;;;3.25;0.80;;;;;;;19.19;71.01;99744.91;5035563;28;20617;-45
2022/10/28 09:36:17;;;;;;;6.40;3.40;;;;;;;19.08;70.78;99757.66;5037763;27;20530;-48
2022/10/28 09:38:45;;;;;;;6.45;1.98;;;;;;;19.05;70.38;99757.75;5037157;28;20052;-46
2022/10/28 09:41:19;;;;;;;4.57;2.45;;;;;;;18.94;70.25;99766.06;5038741;28;20695;-45
2022/10/28 09:43:51;;;;;;;5.20;1.42;;;;;;;18.78;69.90;99760.63;5038658;28;20534;-44
2022/10/28 09:46:21;;;;;;;4.25;1.70;;;;;;;18.62;70.16;99758.63;5041846;28;20057;-47
2022/10/28 09:48:50;;;;;;;5.20;1.63;;;;;;;18.45;70.41;99770.66;5040833;28;20047;-44
2022/10/28 09:53:57;;;;;;;3.67;2.00;;;;;;;18.22;70.27;99767.19;5006086;27;20914;-47
2022/10/28 09:56:26;;;;;;;3.50;1.67;;;;;;;18.15;70.46;99768.34;4999886;28;20050;-43
2022/10/28 09:58:56;;;;;;;2.55;2.35;;;;;;;18.08;70.37;99782.56;4998950;28;21642;-52
2022/10/28 10:01:23;;;;;;;2.97;2.45;;;;;;;18.04;70.94;99794.06;4999330;28;20779;-52
2022/10/28 10:03:51;;;;;;;12.15;4.95;;;;;;;17.97;70.46;99810.00;4997934;28;20144;-51
2022/10/28 10:06:23;;;;;;;12.45;4.00;;;;;;;17.88;69.48;99814.75;4999190;28;20621;-50
2022/10/28 10:08:53;;;;;;;4.22;2.63;;;;;;;17.86;69.27;99820.03;4998926;28;20528;-52
2022/10/28 10:11:33;;;;;;;5.90;2.25;;;;;;;17.91;69.02;99820.72;5002542;28;20348;-51
2022/10/28 10:14:06;;;;;;;6.47;2.33;;;;;;;17.97;69.02;99828.34;5001391;28;21521;-48
2022/10/28 10:19:13;;;;;;;5.95;2.80;;;;;;;18.32;67.89;99843.69;5059473;27;20408;-48
2022/10/28 10:21:56;;;;;;;3.90;1.45;;;;;;;18.32;68.18;99843.69;5024349;28;20389;-51
2022/10/28 10:27:14;;;;;;;6.07;2.17;;;;;;;18.40;67.85;99861.75;5033510;27;20419;-49
2022/10/28 10:29:46;;;;;;;8.43;3.00;;;;;;;18.37;67.60;99849.59;5027049;28;20497;-51
2022/10/28 10:34:56;;;;;;;4.63;2.03;;;;;;;18.38;67.22;99874.06;5034227;27;20407;-49
2022/10/28 10:37:23;;;;;;;5.78;1.52;;;;;;;18.36;67.96;99882.00;5022484;28;20453;-56
2022/10/28 10:40:05;;;;;;;2.47;1.05;;;;;;;18.29;67.23;99890.13;5022557;28;20095;-53
2022/10/28 10:42:32;;;;;;;3.88;1.50;;;;;;;18.29;67.34;99890.13;5016858;28;20041;-53
2022/10/28 10:48:06;;;;;;;4.63;2.67;;;;;;;18.24;67.77;99885.91;5010860;28;20425;-50
2022/10/28 10:50:36;;;;;;;5.93;5.43;;;;;;;18.23;66.84;99881.59;5012906;28;20053;-47
2022/10/28 10:53:03;;;;;;;3.78;2.28;;;;;;;18.26;67.55;99888.50;5012760;28;20076;-51
2022/10/28 10:58:17;;;;;;;3.53;1.08;;;;;;;18.38;67.41;99897.66;5051620;27;20394;-53
2022/10/28 11:00:47;;;;;;;2.05;0.60;;;;;;;18.44;67.70;99905.28;5016713;28;20069;-56
2022/10/28 11:06:01;;;;;;;2.80;0.85;;;;;;;18.62;67.65;99913.38;5021616;28;20404;-49
2022/10/28 11:08:47;;;;;;;1.35;0.55;;;;;;;18.65;66.98;99908.03;5014287;28;20058;-53
2022/10/28 11:16:49;;;;;;;5.43;1.02;;;;;;;18.80;66.74;99917.03;5041295;27;20407;-55
2022/10/28 11:29:59;;;;;;;2.72;1.40;;;;;;;18.80;65.97;99926.66;5065169;27;20401;-50
2022/10/28 11:32:41;;;;;;;2.88;0.70;;;;;;;18.81;66.00;99917.91;5057669;28;20072;-48
2022/10/28 11:43:55;;;;;;;3.25;0.75;;;;;;;18.77;65.14;99935.53;5024180;28;20911;-51
2022/10/28 11:55:01;;;;;;;3.10;1.95;;;;;;;18.85;65.65;99933.44;5050701;27;20411;-54
2022/10/28 12:00:42;;;;;;;3.60;1.75;;;;;;;18.89;63.85;99944.69;5052169;28;20436;-48
2022/10/28 12:03:48;;;;;;;5.13;1.13;;;;;;;18.65;64.81;99955.22;5007258;28;20143;-54
2022/10/28 12:06:28;;;;;;;3.95;1.10;;;;;;;18.62;65.43;99956.19;4993819;28;20502;-52
2022/10/28 12:16:58;;;;;;;6.18;2.08;;;;;;;18.80;65.79;99989.63;5045865;27;20773;-54
2022/10/28 12:19:31;;;;;;;5.35;2.80;;;;;;;18.84;65.38;99993.84;5004519;28;20077;-52
2022/10/28 12:22:04;;;;;;;4.22;1.98;;;;;;;18.81;65.31;100005.31;5021638;28;20401;-49
2022/10/28 12:24:34;;;;;;;2.95;1.92;;;;;;;18.81;65.40;100007.13;5019225;28;20144;-54
2022/10/28 12:27:10;;;;;;;2.33;2.10;;;;;;;18.78;65.12;100015.09;5027932;28;20054;-52
2022/10/28 12:29:50;;;;;;;2.45;1.60;;;;;;;18.74;65.76;100006.47;5023673;28;20080;-53
2022/10/28 12:32:23;;;;;;;4.03;2.10;;;;;;;18.66;65.91;100004.16;5022625;28;20149;-50
2022/10/28 12:34:58;;;;;;;4.72;1.67;;;;;;;18.61;65.57;100000.84;5023584;28;20111;-55
2022/10/28 12:37:31;;;;;;;2.35;0.63;;;;;;;18.53;64.72;99995.00;5023611;28;20479;-49
2022/10/28 12:40:06;;;;;;;2.72;2.53;;;;;;;18.46;64.91;100013.59;5047534;28;20143;-54
2022/10/28 12:42:38;;;;;;;2.40;1.70;;;;;;;18.42;64.33;100022.50;5021401;28;20056;-50
2022/10/28 12:45:11;;;;;;;1.88;1.73;;;;;;;18.41;64.15;100026.00;5018645;28;20475;-54
2022/10/28 12:47:47;;;;;;;1.25;0.85;;;;;;;18.42;64.15;100035.59;5033510;28;20628;-53
2022/10/28 12:50:38;;;;;;;2.80;1.63;;;;;;;18.34;62.93;100045.53;4998472;28;20141;-53
2022/10/28 12:53:21;;;;;;;2.40;2.03;;;;;;;18.34;63.47;100045.53;5004034;28;20156;-49
2022/10/28 12:55:55;;;;;;;1.35;1.25;;;;;;;18.44;63.51;100046.88;5005040;28;21059;-49
2022/10/28 13:01:11;;;;;;;1.27;0.47;;;;;;;18.75;62.37;100051.00;5068495;27;20402;-50
2022/10/28 13:03:39;;;;;;;1.55;0.65;;;;;;;18.68;62.40;100044.28;5031481;28;20051;-46
2022/10/28 13:12:19;;;;;;;1.15;0.50;;;;;;;18.36;62.74;100033.19;5070618;27;20384;-46
2022/10/28 13:18:04;;;;;;;1.45;0.82;;;;;;;18.27;62.18;100049.25;5041152;27;20405;-53
2022/10/28 13:29:07;;;;;;;1.60;0.82;;;;;;;18.32;61.28;100057.81;5062135;27;20407;-54
2022/10/28 13:31:44;;;;;;;0.77;0.40;;;;;;;18.22;61.28;100070.38;5021666;28;20107;-48
2022/10/28 13:34:14;;;;;;;0.70;0.50;;;;;;;18.17;61.86;100080.19;5006495;28;20054;-46
2022/10/28 13:36:42;;;;;;;;;;;;;;;17.91;61.54;100074.88;5007243;28;20145;-50
2022/10/28 13:52:42;;;;;;;2.15;0.73;;;;;;;17.91;62.00;100093.22;5068014;27;20401;-51
2022/10/28 13:57:59;;;;;;;3.00;0.30;;;;;;;17.87;62.10;100099.47;5104838;27;20410;-51
2022/10/28 14:03:04;;;;;;;2.40;1.85;;;;;;;17.84;62.02;100104.78;5033978;27;20405;-46
2022/10/28 14:08:19;;;;;;;1.77;0.82;;;;;;;17.75;61.78;100100.69;5022129;28;20752;-52
2022/10/28 14:13:48;;;;;;;1.08;0.30;;;;;;;17.73;62.39;100113.84;5021143;27;20397;-47
2022/10/28 14:32:59;;;;;;;2.72;1.73;;;;;;;17.40;61.18;100121.84;5067659;27;20405;-49
2022/10/28 14:35:32;;;;;;;3.53;2.42;;;;;;;17.37;61.32;100118.44;5024599;28;20527;-57
2022/10/28 14:41:04;;;;;;;2.65;0.68;;;;;;;17.27;61.93;100125.72;5045756;27;20399;-49
2022/10/28 14:48:50;;;;;;;4.25;2.05;;;;;;;17.10;61.98;100132.31;5078783;27;20398;-50
2022/10/28 14:51:22;;;;;;;4.05;1.92;;;;;;;17.06;61.73;100138.53;5041637;28;20065;-47
2022/10/28 14:53:53;;;;;;;5.25;3.08;;;;;;;17.03;61.70;100141.19;5035332;28;20055;-48
2022/10/28 14:56:27;;;;;;;1.85;0.90;;;;;;;16.99;61.58;100144.81;5040574;28;20416;-51
2022/10/28 14:58:58;;;;;;;2.30;2.10;;;;;;;16.94;61.87;100151.03;5014638;28;20056;-51
2022/10/28 15:01:27;;;;;;;5.35;2.25;;;;;;;16.90;61.65;100152.00;5018987;28;20049;-54